Time;durP1;ratioP1;P1;durP2;ratioP2;P2;SDS_P1;SDS_P2;PMS_P1;PMS_P2;Temp;Humidity;BMP_temperature;BMP_pressure;BME280_temperature;BME280_humidity;BME280_pressure;Samples;Min_cycle;Max_cycle;Signal;HPM_P1;HPM_P2
2021/11/21 00:00:59;;;;;;;83.07;33.42;;;2.00;99.90;;;;;;6225542;23;20035;-85
2021/11/21 00:03:47;;;;;;;177.00;36.20;;;2.00;99.90;;;;;;6241986;23;20036;-85
2021/11/21 00:06:42;;;;;;;129.60;34.63;;;2.00;99.90;;;;;;6224601;23;20086;-85
2021/11/21 00:09:30;;;;;;;121.43;34.85;;;2.00;99.90;;;;;;6243381;23;20094;-85
2021/11/21 00:12:18;;;;;;;154.68;37.03;;;2.00;99.90;;;;;;6243790;23;20431;-85
2021/11/21 00:15:07;;;;;;;217.10;37.42;;;2.00;99.90;;;;;;6202843;23;20032;-85
2021/11/21 00:17:56;;;;;;;205.88;34.88;;;1.90;99.90;;;;;;6222409;23;20416;-85
2021/11/21 00:20:45;;;;;;;289.85;41.95;;;1.90;99.90;;;;;;6221686;23;20058;-84
2021/11/21 00:23:32;;;;;;;288.23;43.03;;;1.90;99.90;;;;;;6223716;23;20329;-86
2021/11/21 00:26:20;;;;;;;121.63;34.70;;;1.90;99.90;;;;;;6222442;23;20036;-86
2021/11/21 00:29:07;;;;;;;169.05;35.95;;;1.90;99.90;;;;;;6201430;23;20028;-85
2021/11/21 00:31:56;;;;;;;373.73;41.17;;;1.90;99.90;;;;;;6221802;23;20024;-85
2021/11/21 00:34:47;;;;;;;159.55;35.47;;;2.00;99.90;;;;;;6221435;23;20027;-85
2021/11/21 00:37:35;;;;;;;122.88;30.27;;;2.00;99.90;;;;;;6203599;23;20028;-85
2021/11/21 00:40:25;;;;;;;119.10;31.13;;;2.00;99.90;;;;;;6246656;22;20462;-84
2021/11/21 00:43:20;;;;;;;107.13;30.98;;;1.90;99.90;;;;;;6202330;23;20063;-86
2021/11/21 00:46:07;;;;;;;67.90;27.70;;;2.00;99.90;;;;;;6222561;23;20055;-85
2021/11/21 00:48:55;;;;;;;68.47;25.75;;;2.00;99.90;;;;;;6245003;23;20086;-85
2021/11/21 00:51:43;;;;;;;50.85;26.27;;;2.00;99.90;;;;;;6221614;23;20039;-86
2021/11/21 00:57:35;;;;;;;43.80;23.52;;;2.00;99.90;;;;;;6243467;23;20035;-84
2021/11/21 01:00:22;;;;;;;59.72;24.27;;;1.90;99.90;;;;;;6221889;23;20024;-86
2021/11/21 01:03:13;;;;;;;47.45;24.10;;;1.90;99.90;;;;;;6202344;23;20035;-85
2021/11/21 01:06:01;;;;;;;49.95;24.70;;;1.90;99.90;;;;;;6243518;23;20463;-85
2021/11/21 01:08:48;;;;;;;46.47;24.25;;;1.90;99.90;;;;;;6221068;23;20039;-85
2021/11/21 01:11:37;;;;;;;57.63;24.08;;;1.80;99.90;;;;;;6181981;23;20034;-84
2021/11/21 01:14:25;;;;;;;37.10;21.30;;;1.80;99.90;;;;;;6242489;23;20027;-85
2021/11/21 01:17:12;;;;;;;44.35;22.17;;;1.80;99.90;;;;;;6220703;23;20020;-86
2021/11/21 01:20:00;;;;;;;37.65;21.05;;;1.80;99.90;;;;;;6205333;23;20078;-85
2021/11/21 01:22:48;;;;;;;45.33;22.33;;;1.70;99.90;;;;;;6223185;23;20020;-85
2021/11/21 01:25:36;;;;;;;37.25;21.25;;;1.70;99.90;;;;;;6225941;23;20020;-85
2021/11/21 01:28:25;;;;;;;44.72;22.00;;;1.60;99.90;;;;;;6223331;23;20063;-85
2021/11/21 01:31:12;;;;;;;38.28;21.27;;;1.60;99.90;;;;;;6201726;23;20035;-86
2021/11/21 01:34:00;;;;;;;37.20;20.98;;;1.60;99.90;;;;;;6201258;23;20028;-85
2021/11/21 01:36:47;;;;;;;34.53;19.95;;;1.60;99.90;;;;;;6220201;23;20032;-85
2021/11/21 01:39:37;;;;;;;36.58;19.65;;;1.60;99.90;;;;;;6179811;23;20020;-85
2021/11/21 01:42:24;;;;;;;31.35;18.52;;;1.60;99.90;;;;;;6222886;23;20024;-87
2021/11/21 01:45:16;;;;;;;31.15;18.17;;;1.50;99.90;;;;;;6202667;23;20339;-85
2021/11/21 01:48:04;;;;;;;30.58;17.77;;;1.40;99.90;;;;;;6199972;23;20032;-85
2021/11/21 01:50:53;;;;;;;25.95;16.83;;;1.30;99.90;;;;;;6223352;23;20059;-84
2021/11/21 01:53:40;;;;;;;24.25;16.05;;;1.20;99.90;;;;;;6221553;23;20028;-85
2021/11/21 01:56:27;;;;;;;30.70;18.13;;;1.10;99.90;;;;;;6221198;23;20116;-85
2021/11/21 01:59:15;;;;;;;28.88;17.13;;;1.10;99.90;;;;;;6244460;23;20339;-85
2021/11/21 02:02:03;;;;;;;27.52;17.42;;;1.10;99.90;;;;;;6244733;23;20028;-85
2021/11/21 02:04:52;;;;;;;28.85;17.55;;;1.10;99.90;;;;;;6200852;23;20024;-84
2021/11/21 02:07:42;;;;;;;26.63;17.35;;;1.00;99.90;;;;;;6241451;23;20101;-85
2021/11/21 02:10:31;;;;;;;32.92;18.65;;;1.00;99.90;;;;;;6223102;23;20035;-85
2021/11/21 02:13:21;;;;;;;31.05;17.75;;;1.00;99.90;;;;;;6244987;23;20024;-85
2021/11/21 02:16:12;;;;;;;29.10;17.98;;;1.00;99.90;;;;;;6180801;23;20025;-85
2021/11/21 02:19:00;;;;;;;28.33;17.33;;;1.00;99.90;;;;;;6204345;23;20028;-86
2021/11/21 02:21:48;;;;;;;29.48;17.77;;;1.10;99.90;;;;;;6223814;23;20423;-86
2021/11/21 02:24:36;;;;;;;29.73;17.98;;;1.10;99.90;;;;;;6225889;23;20047;-86
2021/11/21 02:27:30;;;;;;;26.23;17.02;;;1.10;99.90;;;;;;6224063;23;20099;-85
2021/11/21 02:30:43;;;;;;;28.10;17.83;;;1.10;99.90;;;;;;6245430;23;20008;-85
2021/11/21 02:33:31;;;;;;;27.67;16.80;;;1.00;99.90;;;;;;6246658;23;20094;-86
2021/11/21 02:36:26;;;;;;;30.42;18.13;;;1.10;99.90;;;;;;6221551;23;20062;-86
2021/11/21 02:39:16;;;;;;;30.20;17.83;;;1.10;99.90;;;;;;6224682;23;20118;-85
2021/11/21 02:42:04;;;;;;;32.42;18.85;;;1.10;99.90;;;;;;6224580;23;20453;-85
2021/11/21 02:44:52;;;;;;;34.38;19.45;;;1.20;99.90;;;;;;6202936;23;20098;-85
2021/11/21 02:47:40;;;;;;;36.08;18.50;;;1.30;99.90;;;;;;6203148;23;20115;-85
2021/11/21 02:50:29;;;;;;;32.75;17.92;;;1.30;99.90;;;;;;6224019;23;20027;-86
2021/11/21 02:53:27;;;;;;;34.53;18.98;;;1.30;99.90;;;;;;6222801;23;20023;-85
2021/11/21 02:56:17;;;;;;;35.17;17.95;;;1.40;99.90;;;;;;6224843;23;20407;-85
2021/11/21 02:59:04;;;;;;;26.85;17.23;;;1.30;99.90;;;;;;6224185;23;20032;-85
2021/11/21 03:01:52;;;;;;;37.53;17.58;;;1.40;99.90;;;;;;6223904;23;20376;-86
2021/11/21 03:04:39;;;;;;;30.70;16.08;;;1.40;99.90;;;;;;6181544;23;20103;-87
2021/11/21 03:07:26;;;;;;;30.50;16.23;;;1.40;99.90;;;;;;6201568;23;20035;-86
2021/11/21 03:10:18;;;;;;;24.98;15.25;;;1.40;99.90;;;;;;6224711;23;20082;-86
2021/11/21 03:13:10;;;;;;;26.20;15.85;;;1.30;99.90;;;;;;6222016;23;20035;-86
2021/11/21 03:15:58;;;;;;;40.50;17.00;;;1.30;99.90;;;;;;6244072;23;20028;-86
2021/11/21 03:18:45;;;;;;;34.20;16.15;;;1.20;99.90;;;;;;6222796;23;20374;-85
2021/11/21 03:21:33;;;;;;;34.65;16.88;;;1.10;99.90;;;;;;6223218;23;20024;-86
2021/11/21 03:24:22;;;;;;;32.85;17.50;;;1.00;99.90;;;;;;6221913;23;20028;-86
2021/11/21 03:27:09;;;;;;;36.10;18.00;;;1.00;99.90;;;;;;6204248;23;20312;-86
2021/11/21 03:29:57;;;;;;;33.38;18.63;;;1.00;99.90;;;;;;6243503;23;20024;-85
2021/11/21 03:32:47;;;;;;;30.08;17.13;;;1.00;99.90;;;;;;6203932;23;20032;-85
2021/11/21 03:35:35;;;;;;;33.88;17.98;;;1.00;99.90;;;;;;6221468;23;20090;-86
2021/11/21 03:38:22;;;;;;;44.95;18.02;;;0.90;99.90;;;;;;6221957;23;20024;-86
2021/11/21 03:41:10;;;;;;;36.15;18.67;;;0.90;99.90;;;;;;6246701;22;20494;-85
2021/11/21 03:43:57;;;;;;;95.53;21.48;;;0.80;99.90;;;;;;6224469;23;20127;-86
2021/11/21 03:46:44;;;;;;;186.43;25.77;;;0.90;99.90;;;;;;6223559;23;20028;-86
2021/11/21 03:49:34;;;;;;;177.13;25.45;;;0.80;99.90;;;;;;6222527;23;20032;-85
2021/11/21 03:52:21;;;;;;;65.07;19.85;;;0.80;99.90;;;;;;6222773;23;20028;-85
2021/11/21 03:55:10;;;;;;;491.30;43.70;;;0.70;99.90;;;;;;6245157;23;20085;-85
2021/11/21 03:58:00;;;;;;;60.83;19.92;;;0.70;99.90;;;;;;6244783;23;20032;-85
2021/11/21 04:00:49;;;;;;;53.92;19.50;;;0.60;99.90;;;;;;6203771;23;20031;-86
2021/11/21 04:03:43;;;;;;;49.17;18.17;;;0.60;99.90;;;;;;6201274;23;20176;-85
2021/11/21 04:06:30;;;;;;;115.18;20.50;;;0.70;99.90;;;;;;6201981;23;20032;-85
2021/11/21 04:09:17;;;;;;;171.30;24.88;;;0.70;99.90;;;;;;6202057;23;20024;-85
2021/11/21 04:12:07;;;;;;;115.22;21.42;;;0.70;99.90;;;;;;6208785;23;20040;-85
2021/11/21 04:14:57;;;;;;;263.33;31.33;;;0.70;99.90;;;;;;6215251;23;20027;-86
2021/11/21 04:17:44;;;;;;;264.00;26.50;;;0.70;99.90;;;;;;6238694;23;20265;-86
2021/11/21 04:20:34;;;;;;;210.27;24.02;;;0.70;99.90;;;;;;6217972;23;20031;-85
2021/11/21 04:23:21;;;;;;;693.42;52.67;;;0.60;99.90;;;;;;6238977;23;20020;-86
2021/11/21 04:26:08;;;;;;;723.40;56.92;;;0.60;99.90;;;;;;6260700;23;20024;-86
2021/11/21 04:28:58;;;;;;;297.80;28.58;;;0.60;99.90;;;;;;6246778;22;20070;-85
2021/11/21 04:31:50;;;;;;;301.33;28.05;;;0.70;99.90;;;;;;6242325;23;20024;-85
2021/11/21 04:34:39;;;;;;;563.78;44.40;;;0.70;99.90;;;;;;6231513;23;20111;-84
2021/11/21 04:37:28;;;;;;;924.08;72.90;;;0.60;99.90;;;;;;6252538;23;20119;-85
2021/11/21 04:40:16;;;;;;;466.45;37.50;;;0.70;99.90;;;;;;6247416;22;20093;-84
2021/11/21 04:43:06;;;;;;;588.28;44.80;;;0.60;99.90;;;;;;6231877;23;20024;-85
2021/11/21 04:45:58;;;;;;;499.55;38.38;;;0.50;99.90;;;;;;6239281;23;20047;-85
2021/11/21 04:48:45;;;;;;;717.53;53.83;;;0.50;99.90;;;;;;6232314;23;20032;-85
2021/11/21 04:51:34;;;;;;;543.92;41.70;;;0.50;99.90;;;;;;6193120;23;20024;-85
2021/11/21 04:54:25;;;;;;;633.80;44.90;;;0.50;99.90;;;;;;6233791;23;20028;-85
2021/11/21 04:57:15;;;;;;;250.23;26.98;;;0.50;99.90;;;;;;6203467;23;20085;-85
2021/11/21 05:00:06;;;;;;;158.15;23.58;;;0.40;99.90;;;;;;6222833;23;20323;-85
2021/11/21 05:03:03;;;;;;;203.75;25.00;;;0.40;99.90;;;;;;6242126;23;20031;-85
2021/11/21 05:05:50;;;;;;;206.10;24.15;;;0.40;99.90;;;;;;6179607;23;20024;-85
2021/11/21 05:08:40;;;;;;;850.45;61.03;;;0.40;99.90;;;;;;6242346;23;20442;-85
2021/11/21 05:11:28;;;;;;;603.95;51.53;;;0.40;99.90;;;;;;6245576;23;20420;-85
2021/11/21 05:14:18;;;;;;;203.30;21.45;;;0.40;99.90;;;;;;6220818;23;20028;-85
2021/11/21 05:17:05;;;;;;;398.48;34.83;;;0.40;99.90;;;;;;6221987;23;20443;-85
2021/11/21 05:19:53;;;;;;;1086.03;83.28;;;0.40;99.90;;;;;;6201090;23;20080;-85
2021/11/21 05:22:41;;;;;;;433.42;38.53;;;0.30;99.90;;;;;;6242995;23;20032;-85
2021/11/21 05:25:31;;;;;;;110.57;20.30;;;0.30;99.90;;;;;;6220828;23;20114;-86
2021/11/21 05:28:25;;;;;;;92.32;18.38;;;0.30;99.90;;;;;;6199571;23;20028;-85
2021/11/21 05:31:12;;;;;;;73.43;18.27;;;0.20;99.90;;;;;;6202695;23;20100;-85
2021/11/21 05:33:59;;;;;;;86.80;18.15;;;0.30;99.90;;;;;;6181642;23;20086;-86
2021/11/21 05:36:49;;;;;;;73.82;16.98;;;0.30;99.90;;;;;;6221198;23;20035;-85
2021/11/21 05:39:39;;;;;;;202.15;20.02;;;0.40;99.90;;;;;;6220081;23;20028;-85
2021/11/21 05:42:26;;;;;;;90.30;15.90;;;0.40;99.90;;;;;;6220688;23;20407;-86
2021/11/21 05:45:13;;;;;;;56.40;13.95;;;0.40;99.90;;;;;;6219718;23;20028;-85
2021/11/21 05:48:03;;;;;;;51.05;13.07;;;0.30;99.90;;;;;;6222430;23;20043;-85
2021/11/21 05:50:50;;;;;;;96.10;14.55;;;0.20;99.90;;;;;;6222906;23;20439;-85
2021/11/21 05:53:38;;;;;;;121.65;15.55;;;0.10;99.90;;;;;;6244549;23;20035;-85
2021/11/21 05:56:27;;;;;;;295.92;21.00;;;0.10;99.90;;;;;;6219655;23;20028;-85
2021/11/21 05:59:15;;;;;;;212.02;20.17;;;0.00;99.90;;;;;;6219791;23;20028;-85
2021/11/21 06:02:08;;;;;;;138.43;15.88;;;0.00;99.90;;;;;;6246038;22;20020;-85
2021/11/21 06:04:55;;;;;;;146.18;16.98;;;0.00;99.90;;;;;;6200596;23;20055;-85
2021/11/21 06:07:43;;;;;;;178.07;17.65;;;0.10;99.90;;;;;;6223615;23;20404;-86
2021/11/21 06:10:30;;;;;;;56.03;13.15;;;0.10;99.90;;;;;;6220989;23;20557;-85
2021/11/21 06:13:17;;;;;;;58.80;13.80;;;0.10;99.90;;;;;;6219297;23;20092;-85
2021/11/21 06:16:05;;;;;;;62.67;13.20;;;0.10;99.90;;;;;;6200278;23;20093;-85
2021/11/21 06:18:57;;;;;;;54.00;12.15;;;0.10;99.90;;;;;;6220825;23;20039;-85
2021/11/21 06:21:45;;;;;;;43.60;11.55;;;0.10;99.90;;;;;;6242909;23;20105;-85
2021/11/21 06:24:35;;;;;;;74.50;14.13;;;0.10;99.90;;;;;;6223364;23;20036;-85
2021/11/21 06:27:22;;;;;;;36.60;11.95;;;0.20;99.90;;;;;;6243931;23;20020;-85
2021/11/21 06:30:09;;;;;;;19.27;11.35;;;0.20;99.90;;;;;;6245687;22;20062;-87
2021/11/21 06:32:57;;;;;;;49.47;12.77;;;0.20;99.90;;;;;;6241574;23;20037;-86
2021/11/21 06:35:48;;;;;;;73.68;14.18;;;0.20;99.90;;;;;;6221380;23;20077;-85
2021/11/21 06:38:35;;;;;;;71.00;12.43;;;0.30;99.90;;;;;;6220232;23;20027;-85
2021/11/21 06:41:22;;;;;;;36.88;12.77;;;0.20;99.90;;;;;;6220431;23;20078;-85
2021/11/21 06:44:12;;;;;;;41.75;12.43;;;0.30;99.90;;;;;;6180757;23;20035;-86
2021/11/21 06:47:02;;;;;;;34.80;12.30;;;0.30;99.90;;;;;;6201217;23;20031;-86
2021/11/21 06:49:49;;;;;;;66.63;12.77;;;0.40;99.90;;;;;;6242525;23;20123;-86
2021/11/21 06:52:37;;;;;;;26.00;11.98;;;0.40;99.90;;;;;;6244313;23;20024;-86
2021/11/21 06:55:25;;;;;;;34.22;11.98;;;0.40;99.90;;;;;;6221376;23;20389;-85
2021/11/21 06:58:12;;;;;;;32.97;11.18;;;0.20;99.90;;;;;;6223058;23;20355;-87
2021/11/21 07:01:02;;;;;;;41.90;12.00;;;0.20;99.90;;;;;;6241515;23;20328;-87
2021/11/21 07:03:51;;;;;;;90.38;14.05;;;0.20;99.90;;;;;;6221434;23;20020;-86
2021/11/21 07:06:41;;;;;;;119.65;13.57;;;0.30;99.90;;;;;;6201693;23;20122;-82
2021/11/21 07:14:03;;;;;;;54.42;13.73;;;0.30;99.90;;;;;;6120840;23;20342;-85
2021/11/21 07:33:39;;;;;;;41.17;13.82;;;0.80;99.90;;;;;;6009267;23;20094;-83
2021/11/21 07:36:26;;;;;;;58.10;16.58;;;0.90;99.90;;;;;;6038830;23;20089;-83
2021/11/21 07:39:14;;;;;;;36.45;14.40;;;1.00;99.90;;;;;;6073920;23;20023;-84
2021/11/21 07:42:01;;;;;;;28.17;13.52;;;1.20;99.90;;;;;;6073390;23;20022;-86
2021/11/21 07:44:51;;;;;;;34.28;13.75;;;1.30;99.90;;;;;;6072084;23;20108;-86
2021/11/21 07:47:40;;;;;;;204.48;21.05;;;1.50;99.90;;;;;;6073134;23;20125;-86
2021/11/21 07:50:27;;;;;;;373.45;30.65;;;1.60;99.90;;;;;;6147898;23;20033;-86
2021/11/21 07:53:14;;;;;;;260.75;24.50;;;1.50;99.90;;;;;;6202420;23;20050;-85
2021/11/21 07:56:02;;;;;;;582.25;43.88;;;1.30;99.90;;;;;;6205062;23;20037;-86
2021/11/21 07:58:50;;;;;;;97.40;17.58;;;1.30;99.90;;;;;;6183066;23;20067;-87
2021/11/21 08:01:38;;;;;;;100.75;20.20;;;1.30;99.90;;;;;;6183501;23;20063;-85
2021/11/21 08:04:26;;;;;;;89.07;18.25;;;1.40;99.90;;;;;;6182505;23;20353;-86
2021/11/21 08:07:15;;;;;;;99.22;19.38;;;1.40;99.90;;;;;;6187343;23;20025;-85
2021/11/21 08:10:04;;;;;;;99.50;18.10;;;1.40;99.90;;;;;;6182447;23;20029;-86
2021/11/21 08:12:51;;;;;;;83.90;17.92;;;1.50;99.90;;;;;;6203646;23;20425;-85
2021/11/21 08:15:40;;;;;;;87.43;18.48;;;1.60;99.90;;;;;;6223477;23;20027;-85
2021/11/21 08:18:27;;;;;;;79.30;16.38;;;1.60;99.90;;;;;;6244964;23;20122;-86
2021/11/21 08:21:14;;;;;;;121.50;17.55;;;1.60;99.90;;;;;;6221740;23;20053;-86
2021/11/21 08:24:07;;;;;;;85.47;17.65;;;1.60;99.90;;;;;;6201515;23;20028;-85
2021/11/21 08:26:54;;;;;;;126.10;18.25;;;1.60;99.90;;;;;;6202206;23;20079;-85
2021/11/21 08:29:41;;;;;;;57.72;16.00;;;1.70;99.90;;;;;;6222161;23;20028;-86
2021/11/21 08:32:29;;;;;;;108.68;18.48;;;1.60;99.90;;;;;;6200006;23;20047;-86
2021/11/21 08:35:16;;;;;;;93.30;18.00;;;1.70;99.90;;;;;;6202928;23;20505;-86
2021/11/21 08:38:06;;;;;;;35.58;15.18;;;1.70;99.90;;;;;;6221020;23;20036;-85
2021/11/21 08:40:54;;;;;;;42.80;15.65;;;1.80;99.90;;;;;;6244212;23;20093;-86
2021/11/21 08:43:43;;;;;;;50.55;15.27;;;1.90;99.90;;;;;;6223283;23;20125;-86
2021/11/21 08:46:30;;;;;;;163.77;26.48;;;1.90;99.90;;;;;;6223382;23;20031;-86
2021/11/21 08:49:18;;;;;;;158.05;23.55;;;1.90;99.90;;;;;;6222885;23;20028;-85
2021/11/21 08:52:07;;;;;;;57.05;19.90;;;1.90;99.90;;;;;;6222615;23;20028;-85
2021/11/21 08:54:57;;;;;;;65.22;18.38;;;1.90;99.90;;;;;;6222889;23;20079;-86
2021/11/21 08:57:46;;;;;;;107.57;21.88;;;2.00;99.90;;;;;;6230405;23;20035;-84
2021/11/21 09:00:35;;;;;;;50.20;18.73;;;2.00;99.90;;;;;;6229658;23;20024;-82
2021/11/21 09:03:22;;;;;;;48.50;18.30;;;2.10;99.90;;;;;;6221178;23;20035;-85
2021/11/21 09:06:11;;;;;;;30.98;16.75;;;2.20;99.90;;;;;;6223810;23;20035;-85
2021/11/21 09:08:59;;;;;;;39.65;17.23;;;2.30;99.90;;;;;;6201459;23;20051;-85
2021/11/21 09:11:49;;;;;;;77.15;16.15;;;2.40;99.90;;;;;;6220996;23;20394;-86
2021/11/21 09:14:38;;;;;;;83.43;18.05;;;2.40;99.90;;;;;;6201043;23;20056;-86
2021/11/21 09:17:26;;;;;;;81.97;16.08;;;2.40;99.90;;;;;;6222380;23;20411;-86
2021/11/21 09:20:13;;;;;;;105.57;19.10;;;2.40;99.90;;;;;;6220780;23;20101;-85
2021/11/21 09:23:09;;;;;;;54.63;16.20;;;2.40;99.90;;;;;;6242557;23;20099;-85
2021/11/21 09:25:59;;;;;;;40.17;14.85;;;2.50;99.90;;;;;;6202301;23;20020;-84
2021/11/21 09:28:46;;;;;;;62.85;16.95;;;2.60;99.90;;;;;;6220941;23;20083;-86
2021/11/21 09:31:34;;;;;;;36.47;16.67;;;2.70;99.90;;;;;;6241607;23;20079;-87
2021/11/21 09:34:22;;;;;;;38.78;14.63;;;2.90;99.90;;;;;;6221748;23;20428;-85
2021/11/21 09:37:10;;;;;;;56.17;15.52;;;2.90;99.90;;;;;;6222070;23;20327;-86
2021/11/21 09:39:59;;;;;;;54.00;16.80;;;2.90;99.90;;;;;;6221836;23;20047;-85
2021/11/21 09:42:47;;;;;;;43.83;18.08;;;2.90;99.90;;;;;;6222098;23;20074;-85
2021/11/21 09:45:34;;;;;;;44.85;17.85;;;2.90;99.90;;;;;;6245325;23;20020;-85
2021/11/21 09:48:31;;;;;;;46.10;18.35;;;2.90;99.90;;;;;;6221438;23;20114;-85
2021/11/21 09:51:21;;;;;;;48.70;16.90;;;2.90;99.90;;;;;;6222102;23;20044;-86
2021/11/21 09:54:09;;;;;;;47.33;19.25;;;3.00;99.90;;;;;;6200106;23;20085;-84
2021/11/21 09:56:56;;;;;;;50.00;20.58;;;3.10;99.90;;;;;;6220300;23;20024;-85
2021/11/21 09:59:56;;;;;;;47.85;21.92;;;3.10;99.90;;;;;;6244471;23;20335;-85
2021/11/21 10:02:59;;;;;;;61.75;23.38;;;3.10;99.90;;;;;;6242937;23;20686;-85
2021/11/21 10:05:53;;;;;;;;;;;3.20;99.90;;;;;;6223910;23;20308;-85
2021/11/21 10:08:49;;;;;;;;;;;3.10;99.90;;;;;;6221187;23;19945;-86
2021/11/21 10:12:01;;;;;;;54.45;21.85;;;3.10;99.90;;;;;;6223543;23;20279;-85
2021/11/21 10:15:02;;;;;;;50.88;21.75;;;3.10;99.90;;;;;;6243374;23;20038;-85
2021/11/21 10:17:57;;;;;;;71.18;32.28;;;3.10;99.90;;;;;;6219868;23;20098;-85
2021/11/21 10:20:45;;;;;;;59.60;28.48;;;3.10;99.90;;;;;;6241738;23;20082;-85
2021/11/21 10:23:32;;;;;;;50.10;22.42;;;3.20;99.90;;;;;;6221146;23;20024;-85
2021/11/21 10:26:25;;;;;;;47.33;23.20;;;3.30;99.90;;;;;;6220656;23;20027;-85
2021/11/21 10:29:25;;;;;;;;;;;3.30;99.90;;;;;;6223818;23;20020;-85
2021/11/21 10:32:23;;;;;;;51.70;23.77;;;3.30;99.90;;;;;;6221309;23;19973;-85
2021/11/21 10:35:18;;;;;;;55.03;24.20;;;3.30;99.90;;;;;;6220956;23;20035;-84
2021/11/21 10:38:05;;;;;;;47.05;23.90;;;3.30;99.90;;;;;;6219190;23;20371;-86
2021/11/21 10:40:55;;;;;;;47.72;24.23;;;3.30;99.90;;;;;;6223934;23;20074;-85
2021/11/21 10:43:53;;;;;;;47.85;24.20;;;3.40;99.90;;;;;;6222649;23;20031;-86
2021/11/21 10:46:57;;;;;;;47.58;22.13;;;3.50;99.90;;;;;;6223573;23;20028;-86
2021/11/21 10:49:50;;;;;;;41.88;22.10;;;3.60;99.90;;;;;;6223919;23;20105;-86
2021/11/21 10:52:44;;;;;;;;;;;3.70;99.90;;;;;;6223611;23;20023;-86
2021/11/21 10:55:32;;;;;;;44.88;22.80;;;3.70;99.90;;;;;;6222564;23;19920;-86
2021/11/21 10:58:21;;;;;;;46.05;22.55;;;3.60;99.90;;;;;;6224844;23;20130;-85
2021/11/21 11:01:22;;;;;;;46.72;22.90;;;3.60;99.90;;;;;;6221597;23;20378;-85
2021/11/21 11:04:17;;;;;;;41.15;21.48;;;3.50;99.90;;;;;;6224011;23;20032;-85
2021/11/21 11:07:15;;;;;;;46.42;22.35;;;3.50;99.90;;;;;;6222733;23;20032;-85
2021/11/21 11:10:06;;;;;;;46.80;23.63;;;3.50;99.90;;;;;;6244879;23;20028;-84
2021/11/21 11:13:05;;;;;;;44.30;23.70;;;3.50;99.90;;;;;;6245859;23;20388;-85
2021/11/21 11:15:56;;;;;;;43.10;23.05;;;3.50;99.90;;;;;;6223283;23;20051;-85
2021/11/21 11:18:45;;;;;;;42.47;22.02;;;3.50;99.90;;;;;;6245381;23;20307;-84
2021/11/21 11:21:32;;;;;;;42.55;22.05;;;3.50;99.90;;;;;;6224751;23;20020;-85
2021/11/21 11:24:27;;;;;;;41.05;20.95;;;3.40;99.90;;;;;;6243982;23;20020;-84
2021/11/21 11:27:31;;;;;;;39.17;21.15;;;3.30;99.90;;;;;;6222867;23;20024;-86
2021/11/21 11:30:28;;;;;;;39.55;21.10;;;3.30;99.90;;;;;;6223852;23;20039;-86
2021/11/21 11:33:24;;;;;;;31.83;16.63;;;3.40;99.90;;;;;;6220882;23;20097;-86
2021/11/21 11:36:24;;;;;;;32.00;16.05;;;3.40;99.90;;;;;;6222371;23;20028;-84
2021/11/21 11:39:17;;;;;;;27.02;15.50;;;3.50;99.90;;;;;;6222163;23;20158;-86
2021/11/21 11:42:33;;;;;;;32.75;17.70;;;3.40;99.90;;;;;;6226285;23;20016;-85
2021/11/21 11:45:39;;;;;;;33.05;17.30;;;3.40;99.90;;;;;;6223639;23;20020;-86
2021/11/21 11:48:30;;;;;;;33.08;18.38;;;3.30;99.90;;;;;;6222161;23;20024;-85
2021/11/21 11:51:20;;;;;;;33.72;17.00;;;3.30;99.90;;;;;;6244641;23;20446;-85
2021/11/21 11:54:23;;;;;;;35.20;18.90;;;3.30;99.90;;;;;;6222344;23;20465;-87
2021/11/21 11:57:10;;;;;;;36.45;17.92;;;3.30;99.90;;;;;;6243180;23;20162;-88
2021/11/21 12:00:23;;;;;;;36.03;17.63;;;3.30;99.90;;;;;;6202072;23;20039;-86
2021/11/21 12:03:43;;;;;;;;;;;3.30;99.90;;;;;;6224246;23;20024;-86
2021/11/21 12:06:55;;;;;;;36.65;17.95;;;3.30;99.90;;;;;;6173920;23;20208;-85
2021/11/21 12:10:02;;;;;;;41.67;20.17;;;3.20;99.90;;;;;;6244941;23;20027;-86
2021/11/21 12:13:07;;;;;;;40.03;19.92;;;3.20;99.90;;;;;;6223060;23;20114;-88
2021/11/21 12:16:04;;;;;;;40.88;19.70;;;3.20;99.90;;;;;;6220929;23;20068;-88
2021/11/21 12:18:58;;;;;;;45.72;21.65;;;3.30;99.90;;;;;;6241292;23;20320;-86
2021/11/21 12:21:47;;;;;;;42.20;19.52;;;3.20;99.90;;;;;;6221900;23;20024;-86
2021/11/21 12:24:45;;;;;;;34.50;19.30;;;3.10;99.90;;;;;;6201728;23;20027;-86
2021/11/21 12:27:44;;;;;;;34.13;19.60;;;3.10;99.90;;;;;;6219921;23;20024;-86
2021/11/21 12:30:37;;;;;;;34.08;19.75;;;3.20;99.90;;;;;;6220352;23;20063;-89
2021/11/21 12:33:27;;;;;;;38.28;19.20;;;3.20;99.90;;;;;;6222979;23;20327;-87
2021/11/21 12:36:17;;;;;;;35.97;18.77;;;3.30;99.90;;;;;;6219492;23;20121;-83
2021/11/21 12:39:28;;;;;;;40.45;18.85;;;3.20;99.90;;;;;;6218885;23;20032;-84
2021/11/21 12:42:18;;;;;;;29.50;15.20;;;3.10;99.90;;;;;;6221680;23;20027;-85
2021/11/21 12:45:09;;;;;;;46.03;18.20;;;2.90;99.90;;;;;;6221251;23;20020;-87
2021/11/21 12:48:01;;;;;;;46.75;21.23;;;2.80;99.90;;;;;;6220815;23;20016;-85
2021/11/21 12:50:53;;;;;;;53.00;24.05;;;2.80;99.90;;;;;;6221797;23;20374;-86
2021/11/21 12:53:41;;;;;;;;;;;2.80;99.90;;;;;;6245273;23;20028;-88
2021/11/21 12:56:28;;;;;;;42.10;18.23;;;2.80;99.90;;;;;;6219866;23;20294;-86
2021/11/21 12:59:16;;;;;;;39.42;19.95;;;2.80;99.90;;;;;;6219878;23;20028;-87
2021/11/21 13:03:15;;;;;;;75.03;21.25;;;2.80;99.90;;;;;;6218025;23;20024;-86
2021/11/21 13:06:16;;;;;;;44.67;19.58;;;2.80;99.90;;;;;;6092359;23;20106;-85
2021/11/21 13:22:21;;;;;;;62.83;22.20;;;2.80;99.90;;;;;;6092517;23;20518;-88
2021/11/21 13:41:22;;;;;;;;;;;2.60;99.90;;;;;;5958182;23;20042;-87
2021/11/21 13:48:35;;;;;;;55.95;22.33;;;2.70;99.90;;;;;;6090327;23;20180;-86
2021/11/21 13:52:12;;;;;;;54.17;22.55;;;2.80;99.90;;;;;;6166114;23;20277;-88
2021/11/21 13:55:03;;;;;;;92.32;25.38;;;2.80;99.90;;;;;;6242726;23;20024;-88
2021/11/21 13:57:56;;;;;;;54.20;23.45;;;2.80;99.90;;;;;;6243206;23;20038;-88
2021/11/21 14:00:44;;;;;;;78.80;23.52;;;2.70;99.90;;;;;;6241568;23;20020;-90
2021/11/21 14:03:39;;;;;;;65.07;23.55;;;2.70;99.90;;;;;;6220648;23;20020;-89
2021/11/21 14:45:31;;;;;;;50.85;22.42;;;2.80;99.90;;;;;;5951218;24;20111;-90
2021/11/21 14:52:34;;;;;;;52.97;24.75;;;2.80;99.90;;;;;;6092086;23;20026;-87
2021/11/21 15:12:04;;;;;;;56.05;24.67;;;2.80;99.90;;;;;;6006986;23;20301;-89
2021/11/21 15:28:03;;;;;;;43.05;19.50;;;2.80;99.90;;;;;;5939185;24;20029;-89
2021/11/21 15:39:22;;;;;;;31.00;15.52;;;2.70;99.90;;;;;;5870284;24;20006;-91
2021/11/21 16:04:43;;;;;;;;;;;;;;;;;;;;;
2021/11/21 16:33:20;;;;;;;51.58;26.17;;;2.80;99.90;;;;;;5896205;24;20130;-89
2021/11/21 16:37:08;;;;;;;42.72;24.42;;;2.80;99.90;;;;;;5897541;24;20017;-90
2021/11/21 16:56:31;;;;;;;41.50;20.58;;;2.70;99.90;;;;;;5923672;24;20021;-90
2021/11/21 17:08:28;;;;;;;37.97;18.38;;;2.60;99.90;;;;;;5975914;23;20423;-88
2021/11/21 17:15:38;;;;;;;42.78;21.50;;;2.60;99.90;;;;;;5977831;24;20071;-90
2021/11/21 17:26:59;;;;;;;39.30;22.30;;;2.70;99.90;;;;;;5980944;23;20404;-89
2021/11/21 17:46:57;;;;;;;42.05;21.20;;;2.80;99.90;;;;;;6227103;23;20084;-87
2021/11/21 17:51:03;;;;;;;;;;;;;;;;;;;;;
2021/11/21 18:31:01;;;;;;;;;;;;;;;;;;;;;
2021/11/21 20:21:08;;;;;;;63.35;26.52;;;2.80;99.90;;;;;;6122329;23;20428;-89
2021/11/21 20:24:01;;;;;;;61.88;26.77;;;2.80;99.90;;;;;;6141821;22;20107;-87
2021/11/21 20:26:51;;;;;;;57.20;25.95;;;2.80;99.90;;;;;;6212785;22;20089;-89
2021/11/21 20:29:39;;;;;;;56.00;25.10;;;2.70;99.90;;;;;;6230441;22;20103;-90
2021/11/21 20:35:32;;;;;;;53.60;23.80;;;2.80;99.90;;;;;;6257595;22;20027;-89
2021/11/21 20:38:37;;;;;;;56.10;25.25;;;2.80;99.90;;;;;;6254523;22;20024;-90
2021/11/21 20:41:28;;;;;;;56.20;25.83;;;2.80;99.90;;;;;;6253339;22;20027;-86
2021/11/21 20:44:16;;;;;;;60.15;28.25;;;2.80;99.90;;;;;;6254423;22;20031;-89
2021/11/21 20:47:03;;;;;;;57.15;25.83;;;2.70;99.90;;;;;;6250873;22;20024;-90
2021/11/21 20:49:52;;;;;;;61.45;25.75;;;2.70;99.90;;;;;;6251473;22;20705;-90
2021/11/21 20:52:39;;;;;;;59.72;26.00;;;2.80;99.90;;;;;;6250722;22;20027;-89
2021/11/21 20:55:30;;;;;;;51.78;24.42;;;2.70;99.90;;;;;;6229757;22;20031;-90
2021/11/21 20:58:19;;;;;;;57.40;25.45;;;2.70;99.90;;;;;;6231922;22;20170;-90
2021/11/21 21:01:07;;;;;;;57.92;26.35;;;2.70;99.90;;;;;;6250222;22;20039;-90
2021/11/21 21:03:55;;;;;;;57.63;24.50;;;2.70;99.90;;;;;;6231461;22;20024;-89
2021/11/21 21:06:44;;;;;;;55.78;24.60;;;2.70;99.90;;;;;;6251580;22;20065;-90
2021/11/21 21:09:35;;;;;;;56.13;24.95;;;2.70;99.90;;;;;;6273974;22;20058;-90
2021/11/21 21:12:23;;;;;;;62.05;25.23;;;2.70;99.90;;;;;;6304809;22;20038;-90
2021/11/21 21:15:11;;;;;;;61.05;26.60;;;2.70;99.90;;;;;;6303313;22;20141;-88